sensor_id;sensor_type;location;lat;lon;timestamp;P1;durP1;ratioP1;P2;durP2;ratioP2
65328;SDS011;51941;52.210;5.158;2022-10-16T00:01:15;4.43;;;1.20;;
65328;SDS011;51941;52.210;5.158;2022-10-16T00:03:45;3.85;;;1.05;;
65328;SDS011;51941;52.210;5.158;2022-10-16T00:08:40;3.65;;;1.08;;
65328;SDS011;51941;52.210;5.158;2022-10-16T00:11:08;3.40;;;1.00;;
65328;SDS011;51941;52.210;5.158;2022-10-16T00:13:37;3.20;;;0.85;;
65328;SDS011;51941;52.210;5.158;2022-10-16T00:16:05;3.07;;;0.90;;
65328;SDS011;51941;52.210;5.158;2022-10-16T00:18:32;2.58;;;1.00;;
65328;SDS011;51941;52.210;5.158;2022-10-16T00:21:05;1.92;;;0.90;;
65328;SDS011;51941;52.210;5.158;2022-10-16T00:23:33;3.80;;;1.00;;
65328;SDS011;51941;52.210;5.158;2022-10-16T00:26:01;1.50;;;0.70;;
65328;SDS011;51941;52.210;5.158;2022-10-16T00:28:29;1.80;;;1.00;;
65328;SDS011;51941;52.210;5.158;2022-10-16T00:30:56;2.55;;;1.00;;
65328;SDS011;51941;52.210;5.158;2022-10-16T00:33:23;3.95;;;1.25;;
65328;SDS011;51941;52.210;5.158;2022-10-16T00:35:50;3.58;;;0.90;;
65328;SDS011;51941;52.210;5.158;2022-10-16T00:38:18;4.32;;;1.15;;
65328;SDS011;51941;52.210;5.158;2022-10-16T00:40:45;3.30;;;1.15;;
65328;SDS011;51941;52.210;5.158;2022-10-16T00:43:12;3.47;;;1.10;;
65328;SDS011;51941;52.210;5.158;2022-10-16T00:45:40;6.20;;;0.95;;
65328;SDS011;51941;52.210;5.158;2022-10-16T00:48:08;2.80;;;0.85;;
65328;SDS011;51941;52.210;5.158;2022-10-16T00:50:40;2.90;;;0.93;;
65328;SDS011;51941;52.210;5.158;2022-10-16T00:53:08;2.28;;;0.90;;
65328;SDS011;51941;52.210;5.158;2022-10-16T00:55:38;5.40;;;1.30;;
65328;SDS011;51941;52.210;5.158;2022-10-16T00:58:05;2.08;;;1.10;;
65328;SDS011;51941;52.210;5.158;2022-10-16T01:00:32;4.38;;;1.05;;
65328;SDS011;51941;52.210;5.158;2022-10-16T01:02:59;1.63;;;1.00;;
65328;SDS011;51941;52.210;5.158;2022-10-16T01:05:28;2.90;;;1.23;;
65328;SDS011;51941;52.210;5.158;2022-10-16T01:08:01;3.80;;;1.40;;
65328;SDS011;51941;52.210;5.158;2022-10-16T01:10:35;2.28;;;1.10;;
65328;SDS011;51941;52.210;5.158;2022-10-16T01:13:08;3.00;;;0.93;;
65328;SDS011;51941;52.210;5.158;2022-10-16T01:15:37;1.38;;;0.80;;
65328;SDS011;51941;52.210;5.158;2022-10-16T01:18:11;4.40;;;1.00;;
65328;SDS011;51941;52.210;5.158;2022-10-16T01:20:44;2.15;;;0.90;;
65328;SDS011;51941;52.210;5.158;2022-10-16T01:23:21;1.40;;;0.70;;
65328;SDS011;51941;52.210;5.158;2022-10-16T01:26:07;4.85;;;1.17;;
65328;SDS011;51941;52.210;5.158;2022-10-16T01:28:43;3.88;;;1.50;;
65328;SDS011;51941;52.210;5.158;2022-10-16T01:31:17;1.40;;;0.88;;
65328;SDS011;51941;52.210;5.158;2022-10-16T01:33:47;1.25;;;1.00;;
65328;SDS011;51941;52.210;5.158;2022-10-16T01:36:21;2.88;;;1.20;;
65328;SDS011;51941;52.210;5.158;2022-10-16T01:38:52;4.70;;;1.60;;
65328;SDS011;51941;52.210;5.158;2022-10-16T01:41:24;2.13;;;1.20;;
65328;SDS011;51941;52.210;5.158;2022-10-16T01:43:56;3.03;;;1.52;;
65328;SDS011;51941;52.210;5.158;2022-10-16T01:46:27;3.30;;;1.42;;
65328;SDS011;51941;52.210;5.158;2022-10-16T01:48:57;3.22;;;1.30;;
65328;SDS011;51941;52.210;5.158;2022-10-16T01:51:26;3.72;;;1.48;;
65328;SDS011;51941;52.210;5.158;2022-10-16T01:53:56;3.27;;;1.20;;
65328;SDS011;51941;52.210;5.158;2022-10-16T01:56:25;2.33;;;1.17;;
65328;SDS011;51941;52.210;5.158;2022-10-16T01:58:57;3.03;;;1.30;;
65328;SDS011;51941;52.210;5.158;2022-10-16T02:01:28;2.30;;;1.10;;
65328;SDS011;51941;52.210;5.158;2022-10-16T02:03:58;1.45;;;1.10;;
65328;SDS011;51941;52.210;5.158;2022-10-16T02:06:29;1.45;;;0.95;;
65328;SDS011;51941;52.210;5.158;2022-10-16T02:08:57;2.75;;;0.90;;
65328;SDS011;51941;52.210;5.158;2022-10-16T02:11:25;1.73;;;1.10;;
65328;SDS011;51941;52.210;5.158;2022-10-16T02:13:53;2.13;;;1.20;;
65328;SDS011;51941;52.210;5.158;2022-10-16T02:16:32;1.95;;;1.30;;
65328;SDS011;51941;52.210;5.158;2022-10-16T02:18:59;2.72;;;1.15;;
65328;SDS011;51941;52.210;5.158;2022-10-16T02:21:28;1.50;;;0.98;;
65328;SDS011;51941;52.210;5.158;2022-10-16T02:24:00;1.92;;;1.20;;
65328;SDS011;51941;52.210;5.158;2022-10-16T02:26:34;2.85;;;1.50;;
65328;SDS011;51941;52.210;5.158;2022-10-16T02:29:10;2.28;;;1.30;;
65328;SDS011;51941;52.210;5.158;2022-10-16T02:31:41;2.28;;;1.30;;
65328;SDS011;51941;52.210;5.158;2022-10-16T02:34:13;2.05;;;1.00;;
65328;SDS011;51941;52.210;5.158;2022-10-16T02:36:42;1.90;;;1.38;;
65328;SDS011;51941;52.210;5.158;2022-10-16T02:39:10;1.42;;;1.02;;
65328;SDS011;51941;52.210;5.158;2022-10-16T02:41:38;2.45;;;1.17;;
65328;SDS011;51941;52.210;5.158;2022-10-16T02:44:04;1.92;;;1.13;;
65328;SDS011;51941;52.210;5.158;2022-10-16T02:46:32;3.28;;;1.35;;
65328;SDS011;51941;52.210;5.158;2022-10-16T02:49:02;3.03;;;1.30;;
65328;SDS011;51941;52.210;5.158;2022-10-16T02:51:29;2.38;;;1.45;;
65328;SDS011;51941;52.210;5.158;2022-10-16T02:53:56;3.95;;;1.63;;
65328;SDS011;51941;52.210;5.158;2022-10-16T02:56:23;1.95;;;1.10;;
65328;SDS011;51941;52.210;5.158;2022-10-16T02:58:49;2.03;;;0.93;;
65328;SDS011;51941;52.210;5.158;2022-10-16T03:01:16;4.22;;;1.45;;
65328;SDS011;51941;52.210;5.158;2022-10-16T03:03:44;2.10;;;1.17;;
65328;SDS011;51941;52.210;5.158;2022-10-16T03:06:11;1.65;;;1.30;;
65328;SDS011;51941;52.210;5.158;2022-10-16T03:08:37;1.92;;;1.38;;
65328;SDS011;51941;52.210;5.158;2022-10-16T03:11:04;2.47;;;1.48;;
65328;SDS011;51941;52.210;5.158;2022-10-16T03:13:31;1.83;;;1.40;;
65328;SDS011;51941;52.210;5.158;2022-10-16T03:15:58;2.35;;;1.10;;
65328;SDS011;51941;52.210;5.158;2022-10-16T03:18:25;1.38;;;1.08;;
65328;SDS011;51941;52.210;5.158;2022-10-16T03:20:53;1.00;;;0.90;;
65328;SDS011;51941;52.210;5.158;2022-10-16T03:23:20;1.27;;;1.00;;
65328;SDS011;51941;52.210;5.158;2022-10-16T03:25:46;3.78;;;1.65;;
65328;SDS011;51941;52.210;5.158;2022-10-16T03:28:13;1.40;;;1.10;;
65328;SDS011;51941;52.210;5.158;2022-10-16T03:30:40;1.15;;;0.82;;
65328;SDS011;51941;52.210;5.158;2022-10-16T03:33:06;1.85;;;1.08;;
65328;SDS011;51941;52.210;5.158;2022-10-16T03:35:33;1.55;;;0.85;;
65328;SDS011;51941;52.210;5.158;2022-10-16T03:38:01;1.27;;;1.00;;
65328;SDS011;51941;52.210;5.158;2022-10-16T03:40:28;2.47;;;1.08;;
65328;SDS011;51941;52.210;5.158;2022-10-16T03:42:56;2.40;;;1.35;;
65328;SDS011;51941;52.210;5.158;2022-10-16T03:45:23;3.63;;;1.73;;
65328;SDS011;51941;52.210;5.158;2022-10-16T03:47:51;2.78;;;1.20;;
65328;SDS011;51941;52.210;5.158;2022-10-16T03:50:17;2.33;;;1.25;;
65328;SDS011;51941;52.210;5.158;2022-10-16T03:52:44;1.92;;;0.90;;
65328;SDS011;51941;52.210;5.158;2022-10-16T03:55:12;2.15;;;1.00;;
65328;SDS011;51941;52.210;5.158;2022-10-16T03:57:39;2.45;;;1.30;;
65328;SDS011;51941;52.210;5.158;2022-10-16T04:00:06;2.92;;;1.10;;
65328;SDS011;51941;52.210;5.158;2022-10-16T04:02:42;3.00;;;1.27;;
65328;SDS011;51941;52.210;5.158;2022-10-16T04:05:09;1.83;;;1.20;;
65328;SDS011;51941;52.210;5.158;2022-10-16T04:07:35;1.10;;;1.00;;
65328;SDS011;51941;52.210;5.158;2022-10-16T04:10:03;1.70;;;1.10;;
65328;SDS011;51941;52.210;5.158;2022-10-16T04:12:32;1.75;;;0.98;;
65328;SDS011;51941;52.210;5.158;2022-10-16T04:14:58;2.10;;;1.10;;
65328;SDS011;51941;52.210;5.158;2022-10-16T04:17:25;1.83;;;0.95;;
65328;SDS011;51941;52.210;5.158;2022-10-16T04:19:52;2.70;;;1.23;;
65328;SDS011;51941;52.210;5.158;2022-10-16T04:22:19;2.72;;;1.15;;
65328;SDS011;51941;52.210;5.158;2022-10-16T04:24:45;0.90;;;0.80;;
65328;SDS011;51941;52.210;5.158;2022-10-16T04:27:12;1.05;;;0.88;;
65328;SDS011;51941;52.210;5.158;2022-10-16T04:29:40;1.10;;;0.90;;
65328;SDS011;51941;52.210;5.158;2022-10-16T04:32:07;1.75;;;0.98;;
65328;SDS011;51941;52.210;5.158;2022-10-16T04:34:35;2.17;;;1.30;;
65328;SDS011;51941;52.210;5.158;2022-10-16T04:37:03;1.35;;;1.00;;
65328;SDS011;51941;52.210;5.158;2022-10-16T04:39:29;1.50;;;0.98;;
65328;SDS011;51941;52.210;5.158;2022-10-16T04:41:56;1.20;;;0.82;;
65328;SDS011;51941;52.210;5.158;2022-10-16T04:44:23;1.17;;;0.90;;
65328;SDS011;51941;52.210;5.158;2022-10-16T04:46:51;4.20;;;1.05;;
65328;SDS011;51941;52.210;5.158;2022-10-16T04:49:18;2.08;;;1.10;;
65328;SDS011;51941;52.210;5.158;2022-10-16T04:51:44;1.08;;;0.80;;
65328;SDS011;51941;52.210;5.158;2022-10-16T04:54:11;2.13;;;1.10;;
65328;SDS011;51941;52.210;5.158;2022-10-16T04:56:38;1.13;;;0.85;;
65328;SDS011;51941;52.210;5.158;2022-10-16T04:59:12;1.95;;;1.00;;
65328;SDS011;51941;52.210;5.158;2022-10-16T05:01:39;2.63;;;0.82;;
65328;SDS011;51941;52.210;5.158;2022-10-16T05:04:07;3.28;;;1.00;;
65328;SDS011;51941;52.210;5.158;2022-10-16T05:06:34;1.42;;;1.00;;
65328;SDS011;51941;52.210;5.158;2022-10-16T05:09:02;2.45;;;0.98;;
65328;SDS011;51941;52.210;5.158;2022-10-16T05:11:29;1.58;;;0.90;;
65328;SDS011;51941;52.210;5.158;2022-10-16T05:13:55;1.30;;;0.90;;
65328;SDS011;51941;52.210;5.158;2022-10-16T05:16:22;1.33;;;0.75;;
65328;SDS011;51941;52.210;5.158;2022-10-16T05:18:49;1.90;;;1.00;;
65328;SDS011;51941;52.210;5.158;2022-10-16T05:21:19;1.35;;;0.90;;
65328;SDS011;51941;52.210;5.158;2022-10-16T05:23:45;2.80;;;0.80;;
65328;SDS011;51941;52.210;5.158;2022-10-16T05:26:12;4.20;;;1.27;;
65328;SDS011;51941;52.210;5.158;2022-10-16T05:28:39;2.80;;;1.08;;
65328;SDS011;51941;52.210;5.158;2022-10-16T05:31:06;0.82;;;0.70;;
65328;SDS011;51941;52.210;5.158;2022-10-16T05:33:33;1.52;;;0.85;;
65328;SDS011;51941;52.210;5.158;2022-10-16T05:36:00;2.97;;;0.98;;
65328;SDS011;51941;52.210;5.158;2022-10-16T05:38:29;4.13;;;1.40;;
65328;SDS011;51941;52.210;5.158;2022-10-16T05:40:56;1.67;;;0.93;;
65328;SDS011;51941;52.210;5.158;2022-10-16T05:43:23;1.73;;;0.82;;
65328;SDS011;51941;52.210;5.158;2022-10-16T05:45:53;4.68;;;1.20;;
65328;SDS011;51941;52.210;5.158;2022-10-16T05:48:21;1.88;;;1.10;;
65328;SDS011;51941;52.210;5.158;2022-10-16T05:50:48;2.60;;;0.93;;
65328;SDS011;51941;52.210;5.158;2022-10-16T05:53:21;2.30;;;1.20;;
65328;SDS011;51941;52.210;5.158;2022-10-16T05:55:55;4.70;;;1.00;;
65328;SDS011;51941;52.210;5.158;2022-10-16T05:58:22;2.10;;;1.00;;
65328;SDS011;51941;52.210;5.158;2022-10-16T06:00:53;1.48;;;0.98;;
65328;SDS011;51941;52.210;5.158;2022-10-16T06:03:20;1.30;;;1.02;;
65328;SDS011;51941;52.210;5.158;2022-10-16T06:05:47;3.13;;;1.20;;
65328;SDS011;51941;52.210;5.158;2022-10-16T06:08:13;3.35;;;1.10;;
65328;SDS011;51941;52.210;5.158;2022-10-16T06:10:40;2.17;;;1.40;;
65328;SDS011;51941;52.210;5.158;2022-10-16T06:13:08;2.20;;;1.20;;
65328;SDS011;51941;52.210;5.158;2022-10-16T06:15:35;2.10;;;1.13;;
65328;SDS011;51941;52.210;5.158;2022-10-16T06:18:04;1.83;;;1.20;;
65328;SDS011;51941;52.210;5.158;2022-10-16T06:20:30;3.17;;;0.90;;
65328;SDS011;51941;52.210;5.158;2022-10-16T06:22:57;3.47;;;1.10;;
65328;SDS011;51941;52.210;5.158;2022-10-16T06:25:24;1.30;;;1.02;;
65328;SDS011;51941;52.210;5.158;2022-10-16T06:27:50;1.60;;;0.98;;
65328;SDS011;51941;52.210;5.158;2022-10-16T06:30:18;2.72;;;1.00;;
65328;SDS011;51941;52.210;5.158;2022-10-16T06:32:45;1.55;;;1.23;;
65328;SDS011;51941;52.210;5.158;2022-10-16T06:35:12;2.95;;;1.20;;
65328;SDS011;51941;52.210;5.158;2022-10-16T06:37:39;1.95;;;0.93;;
65328;SDS011;51941;52.210;5.158;2022-10-16T06:40:06;2.88;;;1.08;;
65328;SDS011;51941;52.210;5.158;2022-10-16T06:42:33;3.03;;;1.58;;
65328;SDS011;51941;52.210;5.158;2022-10-16T06:44:59;1.58;;;1.20;;
65328;SDS011;51941;52.210;5.158;2022-10-16T06:47:28;3.53;;;1.33;;
65328;SDS011;51941;52.210;5.158;2022-10-16T06:49:55;1.25;;;1.15;;
65328;SDS011;51941;52.210;5.158;2022-10-16T06:52:21;1.88;;;1.23;;
65328;SDS011;51941;52.210;5.158;2022-10-16T06:54:49;2.17;;;1.38;;
65328;SDS011;51941;52.210;5.158;2022-10-16T06:57:16;2.35;;;1.35;;
65328;SDS011;51941;52.210;5.158;2022-10-16T06:59:42;7.50;;;2.25;;
65328;SDS011;51941;52.210;5.158;2022-10-16T07:02:09;3.55;;;1.30;;
65328;SDS011;51941;52.210;5.158;2022-10-16T07:04:41;2.70;;;1.08;;
65328;SDS011;51941;52.210;5.158;2022-10-16T07:07:08;1.75;;;1.20;;
65328;SDS011;51941;52.210;5.158;2022-10-16T07:09:34;2.13;;;0.98;;
65328;SDS011;51941;52.210;5.158;2022-10-16T07:12:01;1.90;;;0.98;;
65328;SDS011;51941;52.210;5.158;2022-10-16T07:14:28;1.13;;;0.95;;
65328;SDS011;51941;52.210;5.158;2022-10-16T07:16:55;2.38;;;1.00;;
65328;SDS011;51941;52.210;5.158;2022-10-16T07:19:22;2.13;;;1.08;;
65328;SDS011;51941;52.210;5.158;2022-10-16T07:21:51;2.10;;;0.77;;
65328;SDS011;51941;52.210;5.158;2022-10-16T07:24:18;3.72;;;1.05;;
65328;SDS011;51941;52.210;5.158;2022-10-16T07:26:45;3.10;;;1.08;;
65328;SDS011;51941;52.210;5.158;2022-10-16T07:29:12;1.10;;;0.68;;
65328;SDS011;51941;52.210;5.158;2022-10-16T07:31:40;1.65;;;0.85;;
65328;SDS011;51941;52.210;5.158;2022-10-16T07:34:07;1.92;;;0.70;;
65328;SDS011;51941;52.210;5.158;2022-10-16T07:36:33;2.25;;;0.60;;
65328;SDS011;51941;52.210;5.158;2022-10-16T07:39:02;0.95;;;0.70;;
65328;SDS011;51941;52.210;5.158;2022-10-16T07:41:29;5.55;;;0.82;;
65328;SDS011;51941;52.210;5.158;2022-10-16T07:43:58;3.40;;;0.70;;
65328;SDS011;51941;52.210;5.158;2022-10-16T07:46:26;1.70;;;0.63;;
65328;SDS011;51941;52.210;5.158;2022-10-16T07:48:53;5.32;;;1.00;;
65328;SDS011;51941;52.210;5.158;2022-10-16T07:51:20;3.20;;;1.27;;
65328;SDS011;51941;52.210;5.158;2022-10-16T07:53:48;4.03;;;0.70;;
65328;SDS011;51941;52.210;5.158;2022-10-16T07:56:17;3.08;;;0.80;;
65328;SDS011;51941;52.210;5.158;2022-10-16T07:58:45;1.90;;;0.80;;
65328;SDS011;51941;52.210;5.158;2022-10-16T08:01:14;2.55;;;0.70;;
65328;SDS011;51941;52.210;5.158;2022-10-16T08:03:42;2.13;;;0.68;;
65328;SDS011;51941;52.210;5.158;2022-10-16T08:06:09;1.88;;;0.60;;
65328;SDS011;51941;52.210;5.158;2022-10-16T08:08:36;1.77;;;0.85;;
65328;SDS011;51941;52.210;5.158;2022-10-16T08:11:03;3.78;;;1.13;;
65328;SDS011;51941;52.210;5.158;2022-10-16T08:13:32;4.15;;;1.20;;
65328;SDS011;51941;52.210;5.158;2022-10-16T08:15:58;4.40;;;1.27;;
65328;SDS011;51941;52.210;5.158;2022-10-16T08:18:25;1.50;;;0.90;;
65328;SDS011;51941;52.210;5.158;2022-10-16T08:20:55;2.53;;;1.25;;
65328;SDS011;51941;52.210;5.158;2022-10-16T08:23:23;5.85;;;1.15;;
65328;SDS011;51941;52.210;5.158;2022-10-16T08:25:51;2.72;;;0.90;;
65328;SDS011;51941;52.210;5.158;2022-10-16T08:28:18;4.07;;;1.17;;
65328;SDS011;51941;52.210;5.158;2022-10-16T08:30:47;2.78;;;1.20;;
65328;SDS011;51941;52.210;5.158;2022-10-16T08:33:13;1.83;;;1.10;;
65328;SDS011;51941;52.210;5.158;2022-10-16T08:35:40;3.92;;;1.63;;
65328;SDS011;51941;52.210;5.158;2022-10-16T08:38:07;2.05;;;0.90;;
65328;SDS011;51941;52.210;5.158;2022-10-16T08:40:34;1.60;;;1.00;;
65328;SDS011;51941;52.210;5.158;2022-10-16T08:43:07;3.50;;;1.13;;
65328;SDS011;51941;52.210;5.158;2022-10-16T08:46:01;2.88;;;1.00;;
65328;SDS011;51941;52.210;5.158;2022-10-16T08:48:43;3.97;;;1.23;;
65328;SDS011;51941;52.210;5.158;2022-10-16T08:51:15;4.72;;;1.08;;
65328;SDS011;51941;52.210;5.158;2022-10-16T08:53:48;4.35;;;1.10;;
65328;SDS011;51941;52.210;5.158;2022-10-16T08:56:18;6.00;;;1.23;;
65328;SDS011;51941;52.210;5.158;2022-10-16T08:58:45;3.42;;;0.82;;
65328;SDS011;51941;52.210;5.158;2022-10-16T09:01:15;2.72;;;0.82;;
65328;SDS011;51941;52.210;5.158;2022-10-16T09:03:48;4.85;;;1.23;;
65328;SDS011;51941;52.210;5.158;2022-10-16T09:06:31;5.60;;;1.13;;
65328;SDS011;51941;52.210;5.158;2022-10-16T09:09:09;5.03;;;1.50;;
65328;SDS011;51941;52.210;5.158;2022-10-16T09:11:48;2.97;;;0.80;;
65328;SDS011;51941;52.210;5.158;2022-10-16T09:14:32;3.47;;;1.00;;
65328;SDS011;51941;52.210;5.158;2022-10-16T09:17:14;4.63;;;1.42;;
65328;SDS011;51941;52.210;5.158;2022-10-16T09:19:51;3.97;;;0.93;;
65328;SDS011;51941;52.210;5.158;2022-10-16T09:22:24;5.07;;;0.98;;
65328;SDS011;51941;52.210;5.158;2022-10-16T09:24:53;6.72;;;1.00;;
65328;SDS011;51941;52.210;5.158;2022-10-16T09:27:21;6.60;;;1.27;;
65328;SDS011;51941;52.210;5.158;2022-10-16T09:29:49;6.85;;;1.20;;
65328;SDS011;51941;52.210;5.158;2022-10-16T09:32:18;1.85;;;0.93;;
65328;SDS011;51941;52.210;5.158;2022-10-16T09:34:47;6.10;;;1.30;;
65328;SDS011;51941;52.210;5.158;2022-10-16T09:37:17;5.63;;;1.42;;
65328;SDS011;51941;52.210;5.158;2022-10-16T09:39:46;4.85;;;1.30;;
65328;SDS011;51941;52.210;5.158;2022-10-16T09:42:15;8.77;;;1.90;;
65328;SDS011;51941;52.210;5.158;2022-10-16T09:44:46;8.07;;;1.30;;
65328;SDS011;51941;52.210;5.158;2022-10-16T09:47:17;6.57;;;1.35;;
65328;SDS011;51941;52.210;5.158;2022-10-16T09:49:50;9.88;;;1.50;;
65328;SDS011;51941;52.210;5.158;2022-10-16T09:52:18;3.97;;;1.05;;
65328;SDS011;51941;52.210;5.158;2022-10-16T09:54:48;7.57;;;1.25;;
65328;SDS011;51941;52.210;5.158;2022-10-16T09:57:16;5.85;;;1.02;;
65328;SDS011;51941;52.210;5.158;2022-10-16T09:59:47;5.50;;;1.23;;
65328;SDS011;51941;52.210;5.158;2022-10-16T10:02:14;8.77;;;1.30;;
65328;SDS011;51941;52.210;5.158;2022-10-16T10:04:47;6.05;;;1.33;;
65328;SDS011;51941;52.210;5.158;2022-10-16T10:07:20;7.70;;;1.50;;
65328;SDS011;51941;52.210;5.158;2022-10-16T10:09:51;6.30;;;1.30;;
65328;SDS011;51941;52.210;5.158;2022-10-16T10:12:19;5.00;;;1.40;;
65328;SDS011;51941;52.210;5.158;2022-10-16T10:14:48;12.18;;;1.40;;
65328;SDS011;51941;52.210;5.158;2022-10-16T10:17:19;6.20;;;1.50;;
65328;SDS011;51941;52.210;5.158;2022-10-16T10:19:48;6.63;;;1.40;;
65328;SDS011;51941;52.210;5.158;2022-10-16T10:22:17;7.07;;;1.40;;
65328;SDS011;51941;52.210;5.158;2022-10-16T10:24:55;9.15;;;1.40;;
65328;SDS011;51941;52.210;5.158;2022-10-16T10:27:31;9.40;;;1.55;;
65328;SDS011;51941;52.210;5.158;2022-10-16T10:30:06;5.50;;;1.15;;
65328;SDS011;51941;52.210;5.158;2022-10-16T10:32:42;4.45;;;1.30;;
65328;SDS011;51941;52.210;5.158;2022-10-16T10:35:19;5.43;;;1.17;;
65328;SDS011;51941;52.210;5.158;2022-10-16T10:37:59;5.03;;;1.40;;
65328;SDS011;51941;52.210;5.158;2022-10-16T10:40:38;8.70;;;1.40;;
65328;SDS011;51941;52.210;5.158;2022-10-16T10:43:15;5.43;;;1.10;;
65328;SDS011;51941;52.210;5.158;2022-10-16T10:45:52;5.07;;;1.10;;
65328;SDS011;51941;52.210;5.158;2022-10-16T10:48:29;9.73;;;1.35;;
65328;SDS011;51941;52.210;5.158;2022-10-16T10:51:15;8.70;;;1.48;;
65328;SDS011;51941;52.210;5.158;2022-10-16T10:53:50;8.52;;;1.65;;
65328;SDS011;51941;52.210;5.158;2022-10-16T10:56:34;4.68;;;1.58;;
65328;SDS011;51941;52.210;5.158;2022-10-16T10:59:14;9.32;;;1.60;;
65328;SDS011;51941;52.210;5.158;2022-10-16T11:01:55;8.60;;;1.38;;
65328;SDS011;51941;52.210;5.158;2022-10-16T11:04:43;7.45;;;1.55;;
65328;SDS011;51941;52.210;5.158;2022-10-16T11:07:30;8.80;;;1.70;;
65328;SDS011;51941;52.210;5.158;2022-10-16T11:10:02;7.88;;;1.65;;
65328;SDS011;51941;52.210;5.158;2022-10-16T11:12:34;7.88;;;1.55;;
65328;SDS011;51941;52.210;5.158;2022-10-16T11:15:07;7.47;;;1.45;;
65328;SDS011;51941;52.210;5.158;2022-10-16T11:17:41;4.05;;;1.23;;
65328;SDS011;51941;52.210;5.158;2022-10-16T11:20:16;4.72;;;1.30;;
65328;SDS011;51941;52.210;5.158;2022-10-16T11:22:47;7.63;;;1.33;;
65328;SDS011;51941;52.210;5.158;2022-10-16T11:25:19;5.03;;;1.23;;
65328;SDS011;51941;52.210;5.158;2022-10-16T11:27:49;4.90;;;1.10;;
65328;SDS011;51941;52.210;5.158;2022-10-16T11:30:20;5.93;;;1.15;;
65328;SDS011;51941;52.210;5.158;2022-10-16T11:32:51;7.32;;;1.45;;
65328;SDS011;51941;52.210;5.158;2022-10-16T11:35:34;6.10;;;1.20;;
65328;SDS011;51941;52.210;5.158;2022-10-16T11:38:09;5.07;;;1.38;;
65328;SDS011;51941;52.210;5.158;2022-10-16T11:40:42;3.55;;;0.90;;
65328;SDS011;51941;52.210;5.158;2022-10-16T11:43:14;3.55;;;1.10;;
65328;SDS011;51941;52.210;5.158;2022-10-16T11:45:49;4.75;;;0.93;;
65328;SDS011;51941;52.210;5.158;2022-10-16T11:48:21;4.68;;;1.13;;
65328;SDS011;51941;52.210;5.158;2022-10-16T11:50:56;6.93;;;1.38;;
65328;SDS011;51941;52.210;5.158;2022-10-16T11:53:35;7.05;;;1.20;;
65328;SDS011;51941;52.210;5.158;2022-10-16T11:56:08;6.35;;;1.27;;
65328;SDS011;51941;52.210;5.158;2022-10-16T11:58:40;5.03;;;1.20;;
65328;SDS011;51941;52.210;5.158;2022-10-16T12:01:18;6.00;;;1.10;;
65328;SDS011;51941;52.210;5.158;2022-10-16T12:03:53;6.32;;;1.50;;
65328;SDS011;51941;52.210;5.158;2022-10-16T12:06:32;7.45;;;1.05;;
65328;SDS011;51941;52.210;5.158;2022-10-16T12:09:03;6.13;;;1.23;;
65328;SDS011;51941;52.210;5.158;2022-10-16T12:11:32;7.50;;;1.20;;
65328;SDS011;51941;52.210;5.158;2022-10-16T12:14:04;6.70;;;1.13;;
65328;SDS011;51941;52.210;5.158;2022-10-16T12:16:33;4.65;;;1.05;;
65328;SDS011;51941;52.210;5.158;2022-10-16T12:19:07;6.82;;;1.20;;
65328;SDS011;51941;52.210;5.158;2022-10-16T12:21:39;3.72;;;0.95;;
65328;SDS011;51941;52.210;5.158;2022-10-16T12:24:07;4.78;;;1.10;;
65328;SDS011;51941;52.210;5.158;2022-10-16T12:26:48;6.18;;;1.00;;
65328;SDS011;51941;52.210;5.158;2022-10-16T12:29:21;3.93;;;0.87;;
65328;SDS011;51941;52.210;5.158;2022-10-16T12:31:58;8.45;;;1.17;;
65328;SDS011;51941;52.210;5.158;2022-10-16T12:34:27;4.63;;;1.00;;
65328;SDS011;51941;52.210;5.158;2022-10-16T12:37:07;3.30;;;0.98;;
65328;SDS011;51941;52.210;5.158;2022-10-16T12:39:36;6.20;;;1.15;;
65328;SDS011;51941;52.210;5.158;2022-10-16T12:42:04;8.25;;;1.27;;
65328;SDS011;51941;52.210;5.158;2022-10-16T12:44:32;6.93;;;1.20;;
65328;SDS011;51941;52.210;5.158;2022-10-16T12:47:00;4.15;;;0.93;;
65328;SDS011;51941;52.210;5.158;2022-10-16T12:49:31;5.20;;;1.02;;
65328;SDS011;51941;52.210;5.158;2022-10-16T12:52:03;11.73;;;1.65;;
65328;SDS011;51941;52.210;5.158;2022-10-16T12:54:31;6.18;;;1.08;;
65328;SDS011;51941;52.210;5.158;2022-10-16T12:57:04;3.42;;;1.13;;
65328;SDS011;51941;52.210;5.158;2022-10-16T12:59:45;4.05;;;0.60;;
65328;SDS011;51941;52.210;5.158;2022-10-16T13:02:25;7.13;;;1.45;;
65328;SDS011;51941;52.210;5.158;2022-10-16T13:05:16;3.28;;;0.75;;
65328;SDS011;51941;52.210;5.158;2022-10-16T13:08:14;6.22;;;0.80;;
65328;SDS011;51941;52.210;5.158;2022-10-16T13:10:54;4.13;;;0.95;;
65328;SDS011;51941;52.210;5.158;2022-10-16T13:13:36;3.95;;;1.05;;
65328;SDS011;51941;52.210;5.158;2022-10-16T13:16:15;5.55;;;1.10;;
65328;SDS011;51941;52.210;5.158;2022-10-16T13:18:52;6.53;;;1.10;;
65328;SDS011;51941;52.210;5.158;2022-10-16T13:21:33;8.23;;;1.00;;
65328;SDS011;51941;52.210;5.158;2022-10-16T13:24:09;10.73;;;1.77;;
65328;SDS011;51941;52.210;5.158;2022-10-16T13:26:46;5.63;;;1.20;;
65328;SDS011;51941;52.210;5.158;2022-10-16T13:29:22;8.43;;;1.27;;
65328;SDS011;51941;52.210;5.158;2022-10-16T13:31:49;5.13;;;1.25;;
65328;SDS011;51941;52.210;5.158;2022-10-16T13:34:17;4.43;;;1.25;;
65328;SDS011;51941;52.210;5.158;2022-10-16T13:36:48;7.13;;;1.40;;
65328;SDS011;51941;52.210;5.158;2022-10-16T13:39:22;5.32;;;1.17;;
65328;SDS011;51941;52.210;5.158;2022-10-16T13:42:03;7.70;;;1.05;;
65328;SDS011;51941;52.210;5.158;2022-10-16T13:44:34;2.40;;;0.90;;
65328;SDS011;51941;52.210;5.158;2022-10-16T13:47:05;6.50;;;0.98;;
65328;SDS011;51941;52.210;5.158;2022-10-16T13:49:41;6.30;;;1.20;;
65328;SDS011;51941;52.210;5.158;2022-10-16T13:52:15;6.57;;;1.23;;
65328;SDS011;51941;52.210;5.158;2022-10-16T13:54:45;4.10;;;1.10;;
65328;SDS011;51941;52.210;5.158;2022-10-16T13:57:13;7.35;;;1.65;;
65328;SDS011;51941;52.210;5.158;2022-10-16T13:59:41;8.98;;;1.00;;
65328;SDS011;51941;52.210;5.158;2022-10-16T14:02:10;5.47;;;1.02;;
65328;SDS011;51941;52.210;5.158;2022-10-16T14:04:46;4.63;;;1.17;;
65328;SDS011;51941;52.210;5.158;2022-10-16T14:07:13;3.58;;;0.60;;
65328;SDS011;51941;52.210;5.158;2022-10-16T14:09:47;4.55;;;1.10;;
65328;SDS011;51941;52.210;5.158;2022-10-16T14:12:15;5.07;;;0.98;;
65328;SDS011;51941;52.210;5.158;2022-10-16T14:14:43;7.82;;;1.55;;
65328;SDS011;51941;52.210;5.158;2022-10-16T14:17:15;8.07;;;1.30;;
65328;SDS011;51941;52.210;5.158;2022-10-16T14:19:45;4.65;;;0.73;;
65328;SDS011;51941;52.210;5.158;2022-10-16T14:22:21;5.13;;;1.20;;
65328;SDS011;51941;52.210;5.158;2022-10-16T14:24:55;5.65;;;1.45;;
65328;SDS011;51941;52.210;5.158;2022-10-16T14:27:28;3.42;;;1.00;;
65328;SDS011;51941;52.210;5.158;2022-10-16T14:30:12;4.90;;;0.80;;
65328;SDS011;51941;52.210;5.158;2022-10-16T14:32:42;7.50;;;1.25;;
65328;SDS011;51941;52.210;5.158;2022-10-16T14:35:24;3.00;;;0.88;;
65328;SDS011;51941;52.210;5.158;2022-10-16T14:37:53;5.38;;;0.98;;
65328;SDS011;51941;52.210;5.158;2022-10-16T14:40:24;4.38;;;1.00;;
65328;SDS011;51941;52.210;5.158;2022-10-16T14:42:52;2.08;;;0.80;;
65328;SDS011;51941;52.210;5.158;2022-10-16T14:45:20;3.70;;;1.00;;
65328;SDS011;51941;52.210;5.158;2022-10-16T14:47:49;5.70;;;0.90;;
65328;SDS011;51941;52.210;5.158;2022-10-16T14:50:18;3.60;;;0.88;;
65328;SDS011;51941;52.210;5.158;2022-10-16T14:52:45;10.30;;;1.40;;
65328;SDS011;51941;52.210;5.158;2022-10-16T14:55:12;4.03;;;0.77;;
65328;SDS011;51941;52.210;5.158;2022-10-16T14:57:40;4.75;;;1.13;;
65328;SDS011;51941;52.210;5.158;2022-10-16T15:00:10;6.30;;;1.00;;
65328;SDS011;51941;52.210;5.158;2022-10-16T15:02:42;3.22;;;1.00;;
65328;SDS011;51941;52.210;5.158;2022-10-16T15:05:13;5.22;;;1.10;;
65328;SDS011;51941;52.210;5.158;2022-10-16T15:07:42;3.58;;;1.02;;
65328;SDS011;51941;52.210;5.158;2022-10-16T15:10:09;4.38;;;1.10;;